UAL1612 KBOS-KIAD
Flight info
| Callsign | UAL1612 |
|---|---|
| Flight time | 1h 4m |
| Altitude | 36000 |
| Route | BLZZR6 BLZZR DCT BAF HYPER9 |
| Aircraft | A319/M-SDE3FGHIRWY/LB1 |
Departure
| Time | 2026-05-04 23:25 |
|---|---|
| Airport | Boston Logan International Airport (KBOS) |
Arrival
| Time | 2026-05-05 00:29 |
|---|---|
| Airport | Washington Dulles International Airport (KIAD) |
| Time | Latitude | Longitude | Altitude | Speed | Heading |
|---|---|---|---|---|---|
| 2026-05-04 22:57 | 42.36091 | -71.01685 | 21 ft | 0 kts | 290° |
| 2026-05-04 23:09 | 42.36084 | -71.01663 | 21 ft | 4 kts | 292° |
| 2026-05-04 23:09 | 42.36075 | -71.01629 | 25 ft | 4 kts | 284° |
| 2026-05-04 23:09 | 42.36068 | -71.01594 | 22 ft | 4 kts | 296° |
| 2026-05-04 23:10 | 42.36054 | -71.01570 | 26 ft | 4 kts | 355° |
| 2026-05-04 23:10 | 42.36047 | -71.01570 | 23 ft | 0 kts | 20° |
| 2026-05-04 23:13 | 42.36080 | -71.01554 | 23 ft | 10 kts | 20° |
| 2026-05-04 23:14 | 42.36161 | -71.01514 | 20 ft | 12 kts | 21° |
| 2026-05-04 23:14 | 42.36191 | -71.01405 | 19 ft | 14 kts | 51° |
| 2026-05-04 23:14 | 42.36295 | -71.01351 | 16 ft | 18 kts | 20° |
| 2026-05-04 23:14 | 42.36417 | -71.01293 | 15 ft | 20 kts | 19° |
| 2026-05-04 23:15 | 42.36541 | -71.01232 | 15 ft | 0 kts | 20° |
| 2026-05-04 23:15 | 42.36548 | -71.01229 | 15 ft | 2 kts | 18° |
| 2026-05-04 23:15 | 42.36569 | -71.01232 | 16 ft | 4 kts | 334° |
| 2026-05-04 23:15 | 42.36589 | -71.01269 | 16 ft | 6 kts | 312° |
| 2026-05-04 23:16 | 42.36638 | -71.01269 | 17 ft | 9 kts | 14° |
| 2026-05-04 23:16 | 42.36712 | -71.01242 | 17 ft | 13 kts | 13° |
| 2026-05-04 23:16 | 42.36789 | -71.01268 | 14 ft | 9 kts | 324° |
| 2026-05-04 23:16 | 42.36836 | -71.01278 | 14 ft | 5 kts | 28° |
| 2026-05-04 23:17 | 42.36861 | -71.01250 | 13 ft | 7 kts | 39° |
| 2026-05-04 23:17 | 42.36907 | -71.01197 | 13 ft | 11 kts | 41° |
| 2026-05-04 23:17 | 42.36969 | -71.01124 | 13 ft | 13 kts | 38° |
| 2026-05-04 23:17 | 42.37058 | -71.01062 | 11 ft | 16 kts | 26° |
| 2026-05-04 23:18 | 42.37153 | -71.01000 | 12 ft | 13 kts | 26° |
| 2026-05-04 23:18 | 42.37206 | -71.00965 | 12 ft | 2 kts | 26° |
| 2026-05-04 23:18 | 42.37233 | -71.00947 | 12 ft | 7 kts | 26° |
| 2026-05-04 23:18 | 42.37292 | -71.00910 | 10 ft | 12 kts | 24° |
| 2026-05-04 23:19 | 42.37372 | -71.00868 | 10 ft | 12 kts | 20° |
| 2026-05-04 23:19 | 42.37447 | -71.00833 | 13 ft | 11 kts | 18° |
| 2026-05-04 23:19 | 42.37522 | -71.00797 | 15 ft | 12 kts | 20° |
| 2026-05-04 23:19 | 42.37604 | -71.00757 | 17 ft | 13 kts | 19° |
| 2026-05-04 23:20 | 42.37683 | -71.00719 | 21 ft | 12 kts | 19° |
| 2026-05-04 23:20 | 42.37751 | -71.00686 | 23 ft | 7 kts | 20° |
| 2026-05-04 23:20 | 42.37779 | -71.00673 | 24 ft | 1 kts | 19° |
| 2026-05-04 23:20 | 42.37796 | -71.00665 | 24 ft | 4 kts | 19° |
| 2026-05-04 23:21 | 42.37832 | -71.00636 | 24 ft | 8 kts | 51° |
| 2026-05-04 23:21 | 42.37837 | -71.00577 | 23 ft | 0 kts | 104° |
| 2026-05-04 23:22 | 42.37836 | -71.00575 | 23 ft | 2 kts | 104° |
| 2026-05-04 23:22 | 42.37821 | -71.00515 | 22 ft | 9 kts | 110° |
| 2026-05-04 23:22 | 42.37788 | -71.00473 | 20 ft | 12 kts | 181° |
| 2026-05-04 23:22 | 42.37740 | -71.00495 | 20 ft | 0 kts | 199° |
| 2026-05-04 23:24 | 42.37734 | -71.00497 | 20 ft | 5 kts | 199° |
| 2026-05-04 23:24 | 42.37522 | -71.00601 | 16 ft | 66 kts | 200° |
| 2026-05-04 23:24 | 42.36899 | -71.00903 | 18 ft | 122 kts | 200° |
| 2026-05-04 23:24 | 42.36069 | -71.01311 | 482 ft | 125 kts | 201° |
| 2026-05-04 23:25 | 42.35251 | -71.01693 | 1012 ft | 125 kts | 192° |
| 2026-05-04 23:25 | 42.34382 | -71.01658 | 1547 ft | 133 kts | 173° |
| 2026-05-04 23:25 | 42.33533 | -71.00959 | 1970 ft | 161 kts | 142° |
| 2026-05-04 23:25 | 42.32767 | -70.99682 | 2289 ft | 187 kts | 137° |
| 2026-05-04 23:26 | 42.31908 | -70.98212 | 2609 ft | 213 kts | 135° |
| 2026-05-04 23:26 | 42.31266 | -70.96287 | 3160 ft | 238 kts | 103° |
| 2026-05-04 23:26 | 42.31351 | -70.93911 | 3629 ft | 269 kts | 79° |
| 2026-05-04 23:26 | 42.31740 | -70.91329 | 4269 ft | 288 kts | 79° |
| 2026-05-04 23:27 | 42.32137 | -70.88648 | 5224 ft | 294 kts | 78° |
| 2026-05-04 23:27 | 42.32537 | -70.85915 | 6234 ft | 298 kts | 78° |
| 2026-05-04 23:27 | 42.32718 | -70.83099 | 7174 ft | 304 kts | 92° |
| 2026-05-04 23:27 | 42.32370 | -70.80269 | 8105 ft | 308 kts | 107° |
| 2026-05-04 23:28 | 42.31503 | -70.77613 | 9063 ft | 311 kts | 122° |
| 2026-05-04 23:28 | 42.30165 | -70.75310 | 9955 ft | 314 kts | 138° |
| 2026-05-04 23:28 | 42.28400 | -70.73534 | 10616 ft | 320 kts | 155° |
| 2026-05-04 23:28 | 42.26313 | -70.72511 | 11436 ft | 318 kts | 173° |
| 2026-05-04 23:29 | 42.24133 | -70.72319 | 12326 ft | 313 kts | 189° |
| 2026-05-04 23:29 | 42.22038 | -70.72967 | 13224 ft | 307 kts | 206° |
| 2026-05-04 23:29 | 42.20213 | -70.74404 | 13795 ft | 306 kts | 223° |
| 2026-05-04 23:29 | 42.18783 | -70.76572 | 13960 ft | 315 kts | 240° |
| 2026-05-04 23:30 | 42.17980 | -70.79321 | 14346 ft | 319 kts | 258° |
| 2026-05-04 23:30 | 42.17566 | -70.82272 | 15054 ft | 321 kts | 260° |
| 2026-05-04 23:30 | 42.17162 | -70.85245 | 15777 ft | 324 kts | 261° |
| 2026-05-04 23:30 | 42.16757 | -70.88236 | 16489 ft | 326 kts | 261° |
| 2026-05-04 23:31 | 42.16351 | -70.91254 | 17189 ft | 329 kts | 261° |
| 2026-05-04 23:31 | 42.16075 | -70.94326 | 17888 ft | 331 kts | 270° |
| 2026-05-04 23:31 | 42.16226 | -70.97433 | 18541 ft | 334 kts | 276° |
| 2026-05-04 23:31 | 42.16468 | -71.00553 | 19158 ft | 336 kts | 276° |
| 2026-05-04 23:32 | 42.16699 | -71.03702 | 19777 ft | 339 kts | 276° |
| 2026-05-04 23:32 | 42.16922 | -71.06875 | 20405 ft | 342 kts | 276° |
| 2026-05-04 23:32 | 42.17144 | -71.10081 | 21015 ft | 345 kts | 276° |
| 2026-05-04 23:32 | 42.17373 | -71.13312 | 21613 ft | 348 kts | 277° |
| 2026-05-04 23:33 | 42.17606 | -71.16572 | 22210 ft | 351 kts | 277° |
| 2026-05-04 23:33 | 42.17842 | -71.19857 | 22804 ft | 354 kts | 277° |
| 2026-05-04 23:33 | 42.18079 | -71.23174 | 23394 ft | 357 kts | 277° |
| 2026-05-04 23:33 | 42.18318 | -71.26515 | 23904 ft | 359 kts | 277° |
| 2026-05-04 23:34 | 42.18559 | -71.29878 | 24424 ft | 361 kts | 278° |
| 2026-05-04 23:34 | 42.18799 | -71.33261 | 24915 ft | 363 kts | 278° |
| 2026-05-04 23:34 | 42.19037 | -71.36661 | 25415 ft | 365 kts | 278° |
| 2026-05-04 23:34 | 42.19277 | -71.40082 | 25910 ft | 367 kts | 278° |
| 2026-05-04 23:35 | 42.19518 | -71.43521 | 26411 ft | 369 kts | 278° |
| 2026-05-04 23:35 | 42.19763 | -71.46972 | 26904 ft | 371 kts | 278° |
| 2026-05-04 23:35 | 42.20008 | -71.50447 | 27393 ft | 373 kts | 278° |
| 2026-05-04 23:35 | 42.20250 | -71.53941 | 27869 ft | 375 kts | 279° |
| 2026-05-04 23:36 | 42.20492 | -71.57461 | 28325 ft | 378 kts | 278° |
| 2026-05-04 23:36 | 42.20733 | -71.61001 | 28789 ft | 380 kts | 278° |
| 2026-05-04 23:36 | 42.20972 | -71.64560 | 29257 ft | 382 kts | 278° |
| 2026-05-04 23:36 | 42.21207 | -71.68094 | 29713 ft | 385 kts | 278° |
| 2026-05-04 23:37 | 42.21446 | -71.71700 | 30128 ft | 387 kts | 279° |
| 2026-05-04 23:37 | 42.21670 | -71.75327 | 30486 ft | 391 kts | 276° |
| 2026-05-04 23:37 | 42.21582 | -71.79065 | 30834 ft | 397 kts | 271° |
| 2026-05-04 23:37 | 42.21379 | -71.82795 | 31167 ft | 400 kts | 271° |
| 2026-05-04 23:38 | 42.21171 | -71.86544 | 31501 ft | 403 kts | 271° |
| 2026-05-04 23:38 | 42.20961 | -71.90327 | 31813 ft | 405 kts | 271° |
| 2026-05-04 23:38 | 42.20752 | -71.94129 | 32122 ft | 408 kts | 271° |
| 2026-05-04 23:38 | 42.20541 | -71.97946 | 32553 ft | 408 kts | 271° |
| 2026-05-04 23:39 | 42.20327 | -72.01761 | 32939 ft | 409 kts | 271° |
| 2026-05-04 23:39 | 42.20111 | -72.05586 | 33310 ft | 410 kts | 271° |
| 2026-05-04 23:39 | 42.19896 | -72.09425 | 33702 ft | 411 kts | 271° |
| 2026-05-04 23:39 | 42.19679 | -72.13273 | 34055 ft | 412 kts | 271° |
| 2026-05-04 23:40 | 42.19461 | -72.17124 | 34380 ft | 413 kts | 271° |
| 2026-05-04 23:40 | 42.19236 | -72.20992 | 34706 ft | 413 kts | 270° |
| 2026-05-04 23:40 | 42.19012 | -72.24805 | 35041 ft | 414 kts | 270° |
| 2026-05-04 23:40 | 42.18785 | -72.28671 | 35373 ft | 414 kts | 270° |
| 2026-05-04 23:41 | 42.18560 | -72.32531 | 35720 ft | 414 kts | 269° |
| 2026-05-04 23:41 | 42.18332 | -72.36428 | 35827 ft | 420 kts | 269° |
| 2026-05-04 23:41 | 42.17865 | -72.44375 | 35836 ft | 429 kts | 269° |
| 2026-05-04 23:42 | 42.17379 | -72.52402 | 35833 ft | 431 kts | 269° |
| 2026-05-04 23:42 | 42.16884 | -72.60454 | 35825 ft | 431 kts | 269° |
| 2026-05-04 23:43 | 42.16186 | -72.68475 | 35831 ft | 435 kts | 260° |
| 2026-05-04 23:43 | 42.15184 | -72.72344 | 35832 ft | 441 kts | 249° |
| 2026-05-04 23:43 | 42.13643 | -72.75948 | 35832 ft | 448 kts | 239° |
| 2026-05-04 23:44 | 42.09787 | -72.82607 | 35833 ft | 451 kts | 237° |
| 2026-05-04 23:44 | 42.05900 | -72.89240 | 35834 ft | 451 kts | 237° |
| 2026-05-04 23:45 | 42.02014 | -72.95863 | 35842 ft | 451 kts | 237° |
| 2026-05-04 23:45 | 41.98126 | -73.02470 | 35858 ft | 450 kts | 237° |
| 2026-05-04 23:46 | 41.94236 | -73.09063 | 35854 ft | 450 kts | 237° |
| 2026-05-04 23:46 | 41.90338 | -73.15653 | 35866 ft | 450 kts | 236° |
| 2026-05-04 23:47 | 41.86440 | -73.22233 | 35888 ft | 450 kts | 236° |
| 2026-05-04 23:47 | 41.82532 | -73.28814 | 35862 ft | 451 kts | 236° |
| 2026-05-04 23:48 | 41.78630 | -73.35381 | 35869 ft | 450 kts | 236° |
| 2026-05-04 23:48 | 41.74718 | -73.41946 | 35862 ft | 451 kts | 236° |
| 2026-05-04 23:49 | 41.70804 | -73.48506 | 35859 ft | 450 kts | 236° |
| 2026-05-04 23:49 | 41.66895 | -73.55051 | 35845 ft | 450 kts | 236° |
| 2026-05-04 23:50 | 41.62978 | -73.61598 | 35844 ft | 450 kts | 236° |
| 2026-05-04 23:50 | 41.59056 | -73.68122 | 35836 ft | 450 kts | 236° |
| 2026-05-04 23:51 | 41.55135 | -73.74625 | 35833 ft | 449 kts | 236° |
| 2026-05-04 23:51 | 41.51204 | -73.81105 | 35831 ft | 450 kts | 234° |
| 2026-05-04 23:52 | 41.46818 | -73.87129 | 35836 ft | 453 kts | 230° |
| 2026-05-04 23:52 | 41.42380 | -73.93099 | 35846 ft | 453 kts | 230° |
| 2026-05-04 23:53 | 41.37944 | -73.99059 | 35851 ft | 453 kts | 230° |
| 2026-05-04 23:53 | 41.33516 | -74.05013 | 35850 ft | 452 kts | 230° |
| 2026-05-04 23:54 | 41.29084 | -74.10959 | 35833 ft | 452 kts | 230° |
| 2026-05-04 23:54 | 41.24664 | -74.16868 | 35272 ft | 450 kts | 230° |
| 2026-05-04 23:55 | 41.22447 | -74.19828 | 34701 ft | 453 kts | 230° |
| 2026-05-04 23:55 | 41.20223 | -74.22816 | 34262 ft | 456 kts | 232° |
| 2026-05-04 23:55 | 41.16651 | -74.29649 | 33338 ft | 452 kts | 244° |
| 2026-05-04 23:56 | 41.15025 | -74.33193 | 32850 ft | 454 kts | 243° |
| 2026-05-04 23:56 | 41.13405 | -74.36716 | 32353 ft | 454 kts | 243° |
| 2026-05-04 23:56 | 41.11757 | -74.40291 | 31868 ft | 454 kts | 242° |
| 2026-05-04 23:56 | 41.10120 | -74.43827 | 31402 ft | 448 kts | 242° |
| 2026-05-04 23:57 | 41.08498 | -74.47325 | 30940 ft | 443 kts | 242° |
| 2026-05-04 23:57 | 41.06890 | -74.50790 | 30600 ft | 439 kts | 242° |
| 2026-05-04 23:57 | 41.05299 | -74.54226 | 30354 ft | 437 kts | 242° |
| 2026-05-04 23:57 | 41.03712 | -74.57657 | 30116 ft | 435 kts | 242° |
| 2026-05-04 23:58 | 41.02132 | -74.61065 | 29855 ft | 433 kts | 242° |
| 2026-05-04 23:58 | 41.00556 | -74.64451 | 29563 ft | 431 kts | 242° |
| 2026-05-04 23:58 | 40.98962 | -74.67866 | 29278 ft | 429 kts | 242° |
| 2026-05-04 23:58 | 40.97397 | -74.71219 | 28994 ft | 427 kts | 242° |
| 2026-05-04 23:59 | 40.95838 | -74.74562 | 28690 ft | 426 kts | 242° |
| 2026-05-04 23:59 | 40.94290 | -74.77885 | 28439 ft | 425 kts | 242° |
| 2026-05-04 23:59 | 40.92759 | -74.81165 | 28085 ft | 423 kts | 242° |
| 2026-05-04 23:59 | 40.91198 | -74.84503 | 27708 ft | 420 kts | 242° |
| 2026-05-05 00:00 | 40.89685 | -74.87736 | 27526 ft | 419 kts | 242° |
| 2026-05-05 00:00 | 40.89170 | -74.88838 | 27448 ft | 418 kts | 242° |
| 2026-05-05 00:00 | 40.86636 | -74.94254 | 27059 ft | 416 kts | 242° |
| 2026-05-05 00:00 | 40.85091 | -74.97534 | 26814 ft | 414 kts | 241° |
| 2026-05-05 00:01 | 40.83586 | -75.00713 | 26588 ft | 412 kts | 241° |
| 2026-05-05 00:01 | 40.82071 | -75.03917 | 26356 ft | 411 kts | 241° |
| 2026-05-05 00:01 | 40.80565 | -75.07112 | 26122 ft | 409 kts | 241° |
| 2026-05-05 00:01 | 40.77880 | -75.12798 | 25723 ft | 408 kts | 241° |
| 2026-05-05 00:02 | 40.74892 | -75.19111 | 25275 ft | 405 kts | 241° |
| 2026-05-05 00:02 | 40.71918 | -75.25384 | 24872 ft | 402 kts | 241° |
| 2026-05-05 00:02 | 40.68963 | -75.31608 | 24892 ft | 402 kts | 241° |
| 2026-05-05 00:02 | 40.65996 | -75.37859 | 24896 ft | 402 kts | 241° |
| 2026-05-05 00:03 | 40.63167 | -75.44184 | 24889 ft | 401 kts | 243° |
| 2026-05-05 00:03 | 40.60458 | -75.50612 | 24906 ft | 401 kts | 244° |
| 2026-05-05 00:03 | 40.57744 | -75.57019 | 24905 ft | 401 kts | 243° |
| 2026-05-05 00:03 | 40.54980 | -75.63412 | 24902 ft | 402 kts | 243° |
| 2026-05-05 00:04 | 40.52204 | -75.69786 | 24901 ft | 402 kts | 243° |
| 2026-05-05 00:04 | 40.49433 | -75.76154 | 24896 ft | 402 kts | 243° |
| 2026-05-05 00:04 | 40.46661 | -75.82527 | 24875 ft | 401 kts | 243° |
| 2026-05-05 00:04 | 40.43784 | -75.88808 | 24879 ft | 405 kts | 234° |
| 2026-05-05 00:05 | 40.39776 | -75.94055 | 24880 ft | 408 kts | 227° |
| 2026-05-05 00:05 | 40.35694 | -75.99226 | 24888 ft | 408 kts | 227° |
| 2026-05-05 00:05 | 40.31626 | -76.04400 | 24888 ft | 408 kts | 227° |
| 2026-05-05 00:05 | 40.27537 | -76.09563 | 24881 ft | 408 kts | 227° |
| 2026-05-05 00:06 | 40.23450 | -76.14723 | 24885 ft | 408 kts | 227° |
| 2026-05-05 00:06 | 40.19373 | -76.19869 | 24888 ft | 408 kts | 227° |
| 2026-05-05 00:06 | 40.16298 | -76.23738 | 24885 ft | 408 kts | 227° |
| 2026-05-05 00:06 | 40.13030 | -76.27855 | 24756 ft | 408 kts | 228° |
| 2026-05-05 00:07 | 40.11283 | -76.30717 | 24485 ft | 401 kts | 240° |
| 2026-05-05 00:07 | 40.09850 | -76.33830 | 24170 ft | 399 kts | 242° |
| 2026-05-05 00:07 | 40.08424 | -76.36922 | 23719 ft | 396 kts | 241° |
| 2026-05-05 00:07 | 40.07003 | -76.39984 | 23212 ft | 393 kts | 241° |
| 2026-05-05 00:08 | 40.05589 | -76.43022 | 22739 ft | 390 kts | 241° |
| 2026-05-05 00:08 | 40.04191 | -76.46031 | 22271 ft | 386 kts | 241° |
| 2026-05-05 00:08 | 40.02804 | -76.49022 | 21808 ft | 383 kts | 241° |
| 2026-05-05 00:08 | 40.01428 | -76.51979 | 21346 ft | 380 kts | 240° |
| 2026-05-05 00:09 | 40.00053 | -76.54943 | 20552 ft | 384 kts | 240° |
| 2026-05-05 00:09 | 39.98688 | -76.57883 | 20200 ft | 375 kts | 240° |
| 2026-05-05 00:09 | 39.97339 | -76.60786 | 19647 ft | 372 kts | 240° |
| 2026-05-05 00:09 | 39.96007 | -76.63653 | 19223 ft | 367 kts | 240° |
| 2026-05-05 00:10 | 39.94723 | -76.66421 | 18978 ft | 356 kts | 240° |
| 2026-05-05 00:10 | 39.93437 | -76.69184 | 18547 ft | 350 kts | 240° |
| 2026-05-05 00:10 | 39.92185 | -76.71875 | 18063 ft | 347 kts | 240° |
| 2026-05-05 00:10 | 39.90941 | -76.74547 | 17610 ft | 342 kts | 240° |
| 2026-05-05 00:11 | 39.89709 | -76.77190 | 17058 ft | 339 kts | 240° |
| 2026-05-05 00:11 | 39.88492 | -76.79800 | 16664 ft | 336 kts | 240° |
| 2026-05-05 00:11 | 39.87276 | -76.82407 | 16405 ft | 337 kts | 240° |
| 2026-05-05 00:11 | 39.86062 | -76.85002 | 16028 ft | 334 kts | 241° |
| 2026-05-05 00:12 | 39.84856 | -76.87573 | 15648 ft | 331 kts | 241° |
| 2026-05-05 00:12 | 39.83675 | -76.90083 | 15461 ft | 318 kts | 241° |
| 2026-05-05 00:12 | 39.82527 | -76.92512 | 15094 ft | 313 kts | 241° |
| 2026-05-05 00:12 | 39.81395 | -76.94909 | 14663 ft | 310 kts | 242° |
| 2026-05-05 00:13 | 39.80277 | -76.97286 | 14290 ft | 305 kts | 242° |
| 2026-05-05 00:13 | 39.79178 | -76.99631 | 13810 ft | 304 kts | 242° |
| 2026-05-05 00:13 | 39.78086 | -77.01960 | 13403 ft | 300 kts | 242° |
| 2026-05-05 00:13 | 39.77006 | -77.04262 | 12977 ft | 296 kts | 242° |
| 2026-05-05 00:14 | 39.75942 | -77.06523 | 12601 ft | 291 kts | 242° |
| 2026-05-05 00:14 | 39.74894 | -77.08750 | 12241 ft | 286 kts | 242° |
| 2026-05-05 00:14 | 39.73862 | -77.10936 | 11890 ft | 282 kts | 242° |
| 2026-05-05 00:14 | 39.72846 | -77.13092 | 11543 ft | 278 kts | 242° |
| 2026-05-05 00:15 | 39.71840 | -77.15223 | 11192 ft | 275 kts | 242° |
| 2026-05-05 00:15 | 39.70843 | -77.17326 | 10849 ft | 272 kts | 242° |
| 2026-05-05 00:15 | 39.69868 | -77.19379 | 10511 ft | 270 kts | 242° |
| 2026-05-05 00:15 | 39.68873 | -77.21474 | 10168 ft | 267 kts | 241° |
| 2026-05-05 00:16 | 39.67716 | -77.23316 | 9899 ft | 268 kts | 227° |
| 2026-05-05 00:16 | 39.66346 | -77.24948 | 9821 ft | 267 kts | 227° |
| 2026-05-05 00:16 | 39.64964 | -77.26608 | 9682 ft | 267 kts | 227° |
| 2026-05-05 00:16 | 39.63623 | -77.28225 | 9560 ft | 266 kts | 227° |
| 2026-05-05 00:17 | 39.62284 | -77.29877 | 9376 ft | 265 kts | 227° |
| 2026-05-05 00:17 | 39.60954 | -77.31525 | 9246 ft | 264 kts | 227° |
| 2026-05-05 00:17 | 39.59481 | -77.32964 | 9122 ft | 266 kts | 218° |
| 2026-05-05 00:17 | 39.57943 | -77.34305 | 8999 ft | 266 kts | 218° |
| 2026-05-05 00:18 | 39.56408 | -77.35631 | 9006 ft | 266 kts | 218° |
| 2026-05-05 00:18 | 39.54862 | -77.36963 | 8994 ft | 268 kts | 218° |
| 2026-05-05 00:18 | 39.53310 | -77.38305 | 8996 ft | 268 kts | 218° |
| 2026-05-05 00:18 | 39.51757 | -77.39648 | 9003 ft | 269 kts | 218° |
| 2026-05-05 00:19 | 39.50202 | -77.40993 | 9000 ft | 268 kts | 218° |
| 2026-05-05 00:19 | 39.48652 | -77.42338 | 9000 ft | 268 kts | 218° |
| 2026-05-05 00:19 | 39.47102 | -77.43681 | 8997 ft | 269 kts | 218° |
| 2026-05-05 00:19 | 39.45424 | -77.44780 | 8994 ft | 275 kts | 204° |
| 2026-05-05 00:20 | 39.43543 | -77.45267 | 8747 ft | 279 kts | 188° |
| 2026-05-05 00:20 | 39.41593 | -77.45295 | 8390 ft | 280 kts | 186° |
| 2026-05-05 00:20 | 39.39656 | -77.45311 | 8055 ft | 277 kts | 186° |
| 2026-05-05 00:20 | 39.37756 | -77.45331 | 7887 ft | 267 kts | 186° |
| 2026-05-05 00:21 | 39.35955 | -77.45348 | 7763 ft | 251 kts | 186° |
| 2026-05-05 00:21 | 39.34248 | -77.45372 | 7606 ft | 240 kts | 187° |
| 2026-05-05 00:21 | 39.32615 | -77.45406 | 7427 ft | 231 kts | 187° |
| 2026-05-05 00:21 | 39.31025 | -77.45434 | 7124 ft | 227 kts | 187° |
| 2026-05-05 00:22 | 39.29431 | -77.45460 | 6609 ft | 233 kts | 186° |
| 2026-05-05 00:22 | 39.27809 | -77.45484 | 6222 ft | 232 kts | 186° |
| 2026-05-05 00:22 | 39.26201 | -77.45506 | 5893 ft | 228 kts | 186° |
| 2026-05-05 00:22 | 39.24629 | -77.45528 | 5589 ft | 225 kts | 186° |
| 2026-05-05 00:23 | 39.23071 | -77.45552 | 5289 ft | 224 kts | 186° |
| 2026-05-05 00:23 | 39.21514 | -77.45575 | 4997 ft | 223 kts | 186° |
| 2026-05-05 00:23 | 39.19968 | -77.45598 | 4711 ft | 222 kts | 185° |
| 2026-05-05 00:23 | 39.18448 | -77.45620 | 4415 ft | 220 kts | 185° |
| 2026-05-05 00:24 | 39.16930 | -77.45642 | 4125 ft | 216 kts | 185° |
| 2026-05-05 00:24 | 39.15445 | -77.45663 | 3836 ft | 211 kts | 186° |
| 2026-05-05 00:24 | 39.14000 | -77.45684 | 3563 ft | 205 kts | 185° |
| 2026-05-05 00:24 | 39.12589 | -77.45704 | 3292 ft | 200 kts | 185° |
| 2026-05-05 00:25 | 39.11216 | -77.45724 | 3035 ft | 194 kts | 185° |
| 2026-05-05 00:25 | 39.09881 | -77.45744 | 2784 ft | 190 kts | 185° |
| 2026-05-05 00:25 | 39.08593 | -77.45762 | 2551 ft | 180 kts | 184° |
| 2026-05-05 00:25 | 39.07392 | -77.45779 | 2311 ft | 165 kts | 184° |
| 2026-05-05 00:26 | 39.06305 | -77.45794 | 2104 ft | 148 kts | 185° |
| 2026-05-05 00:26 | 39.05320 | -77.45808 | 1913 ft | 136 kts | 186° |
| 2026-05-05 00:26 | 39.04394 | -77.45823 | 1748 ft | 130 kts | 185° |
| 2026-05-05 00:26 | 39.03490 | -77.45836 | 1568 ft | 130 kts | 184° |
| 2026-05-05 00:27 | 39.02583 | -77.45851 | 1375 ft | 131 kts | 184° |
| 2026-05-05 00:27 | 39.01667 | -77.45865 | 1194 ft | 130 kts | 182° |
| 2026-05-05 00:27 | 39.00765 | -77.45875 | 1030 ft | 130 kts | 182° |
| 2026-05-05 00:27 | 38.99862 | -77.45894 | 863 ft | 131 kts | 181° |
| 2026-05-05 00:28 | 38.98955 | -77.45904 | 720 ft | 130 kts | 180° |
| 2026-05-05 00:28 | 38.98045 | -77.45914 | 580 ft | 129 kts | 182° |
| 2026-05-05 00:28 | 38.97140 | -77.45932 | 358 ft | 130 kts | 182° |
| 2026-05-05 00:28 | 38.96269 | -77.45950 | 301 ft | 113 kts | 179° |
| 2026-05-05 00:29 | 38.95671 | -77.45951 | 302 ft | 52 kts | 180° |
| 2026-05-05 00:29 | 38.95494 | -77.45918 | 304 ft | 21 kts | 154° |
| 2026-05-05 00:29 | 38.95373 | -77.45830 | 302 ft | 19 kts | 148° |
| 2026-05-05 00:29 | 38.95283 | -77.45760 | 302 ft | 12 kts | 151° |
| 2026-05-05 00:30 | 38.95200 | -77.45725 | 301 ft | 13 kts | 168° |
| 2026-05-05 00:30 | 38.95154 | -77.45717 | 300 ft | 0 kts | 176° |
| 2026-05-05 00:30 | 38.95143 | -77.45716 | 300 ft | 3 kts | 177° |
| 2026-05-05 00:30 | 38.95105 | -77.45716 | 302 ft | 9 kts | 181° |
| 2026-05-05 00:31 | 38.95018 | -77.45718 | 300 ft | 16 kts | 180° |
| 2026-05-05 00:31 | 38.94875 | -77.45720 | 300 ft | 25 kts | 181° |
| 2026-05-05 00:31 | 38.94715 | -77.45724 | 300 ft | 13 kts | 180° |
| 2026-05-05 00:31 | 38.94666 | -77.45629 | 300 ft | 16 kts | 92° |
| 2026-05-05 00:32 | 38.94664 | -77.45473 | 300 ft | 19 kts | 91° |
| 2026-05-05 00:32 | 38.94662 | -77.45294 | 300 ft | 21 kts | 91° |
| 2026-05-05 00:32 | 38.94660 | -77.45139 | 300 ft | 14 kts | 90° |
| 2026-05-05 00:32 | 38.94660 | -77.45048 | 300 ft | 7 kts | 91° |
| 2026-05-05 00:33 | 38.94659 | -77.44991 | 300 ft | 7 kts | 90° |
| 2026-05-05 00:33 | 38.94659 | -77.44915 | 300 ft | 9 kts | 90° |
| 2026-05-05 00:33 | 38.94650 | -77.44835 | 302 ft | 8 kts | 119° |
| 2026-05-05 00:33 | 38.94625 | -77.44809 | 300 ft | 4 kts | 152° |
| 2026-05-05 00:34 | 38.94592 | -77.44794 | 301 ft | 3 kts | 164° |
| 2026-05-05 00:34 | 38.94577 | -77.44789 | 302 ft | 0 kts | 164° |